sensor_id;sensor_type;location;lat;lon;timestamp;P1;durP1;ratioP1;P2;durP2;ratioP2
76259;SDS011;65076;52.362;6.588;2022-12-29T00:00:06;2.42;;;1.70;;
76259;SDS011;65076;52.362;6.588;2022-12-29T00:02:38;1.65;;;1.45;;
76259;SDS011;65076;52.362;6.588;2022-12-29T00:05:07;2.15;;;1.60;;
76259;SDS011;65076;52.362;6.588;2022-12-29T00:07:35;3.28;;;2.45;;
76259;SDS011;65076;52.362;6.588;2022-12-29T00:10:03;4.75;;;2.55;;
76259;SDS011;65076;52.362;6.588;2022-12-29T00:12:33;4.25;;;2.65;;
76259;SDS011;65076;52.362;6.588;2022-12-29T00:15:15;2.13;;;1.10;;
76259;SDS011;65076;52.362;6.588;2022-12-29T00:18:02;4.57;;;2.00;;
76259;SDS011;65076;52.362;6.588;2022-12-29T00:20:32;2.13;;;1.52;;
76259;SDS011;65076;52.362;6.588;2022-12-29T00:23:19;1.30;;;0.73;;
76259;SDS011;65076;52.362;6.588;2022-12-29T00:26:08;2.35;;;1.40;;
76259;SDS011;65076;52.362;6.588;2022-12-29T00:28:59;7.40;;;4.15;;
76259;SDS011;65076;52.362;6.588;2022-12-29T00:31:44;5.93;;;3.08;;
76259;SDS011;65076;52.362;6.588;2022-12-29T00:34:31;1.52;;;1.17;;
76259;SDS011;65076;52.362;6.588;2022-12-29T00:37:17;2.35;;;1.88;;
76259;SDS011;65076;52.362;6.588;2022-12-29T00:40:07;1.60;;;1.50;;
76259;SDS011;65076;52.362;6.588;2022-12-29T00:42:52;1.13;;;1.02;;
76259;SDS011;65076;52.362;6.588;2022-12-29T00:45:39;1.38;;;1.23;;
76259;SDS011;65076;52.362;6.588;2022-12-29T00:48:08;3.15;;;1.40;;
76259;SDS011;65076;52.362;6.588;2022-12-29T00:50:37;2.90;;;1.42;;
76259;SDS011;65076;52.362;6.588;2022-12-29T00:53:04;2.83;;;1.42;;
76259;SDS011;65076;52.362;6.588;2022-12-29T00:55:35;4.50;;;2.15;;
76259;SDS011;65076;52.362;6.588;2022-12-29T00:58:04;3.33;;;2.30;;
76259;SDS011;65076;52.362;6.588;2022-12-29T01:00:33;1.98;;;1.50;;
76259;SDS011;65076;52.362;6.588;2022-12-29T01:03:01;2.60;;;1.80;;
76259;SDS011;65076;52.362;6.588;2022-12-29T01:05:29;2.05;;;1.40;;
76259;SDS011;65076;52.362;6.588;2022-12-29T01:07:58;1.50;;;1.15;;
76259;SDS011;65076;52.362;6.588;2022-12-29T01:10:26;3.15;;;2.13;;
76259;SDS011;65076;52.362;6.588;2022-12-29T01:12:53;3.35;;;1.88;;
76259;SDS011;65076;52.362;6.588;2022-12-29T01:15:21;2.03;;;1.65;;
76259;SDS011;65076;52.362;6.588;2022-12-29T01:17:49;2.67;;;1.67;;
76259;SDS011;65076;52.362;6.588;2022-12-29T01:20:18;2.17;;;1.45;;
76259;SDS011;65076;52.362;6.588;2022-12-29T01:22:46;2.63;;;1.40;;
76259;SDS011;65076;52.362;6.588;2022-12-29T01:25:15;2.55;;;1.70;;
76259;SDS011;65076;52.362;6.588;2022-12-29T01:27:44;1.95;;;1.55;;
76259;SDS011;65076;52.362;6.588;2022-12-29T01:30:12;2.15;;;1.40;;
76259;SDS011;65076;52.362;6.588;2022-12-29T01:32:40;1.95;;;1.30;;
76259;SDS011;65076;52.362;6.588;2022-12-29T01:35:08;1.80;;;1.45;;
76259;SDS011;65076;52.362;6.588;2022-12-29T01:37:36;1.98;;;1.20;;
76259;SDS011;65076;52.362;6.588;2022-12-29T01:40:04;4.15;;;1.20;;
76259;SDS011;65076;52.362;6.588;2022-12-29T01:42:35;1.85;;;1.20;;
76259;SDS011;65076;52.362;6.588;2022-12-29T01:45:03;2.22;;;1.30;;
76259;SDS011;65076;52.362;6.588;2022-12-29T01:47:39;2.88;;;1.30;;
76259;SDS011;65076;52.362;6.588;2022-12-29T01:50:13;3.45;;;1.42;;
76259;SDS011;65076;52.362;6.588;2022-12-29T01:52:50;1.05;;;0.70;;
76259;SDS011;65076;52.362;6.588;2022-12-29T01:55:23;1.50;;;1.00;;
76259;SDS011;65076;52.362;6.588;2022-12-29T02:00:27;1.67;;;0.93;;
76259;SDS011;65076;52.362;6.588;2022-12-29T02:02:54;1.90;;;0.95;;
76259;SDS011;65076;52.362;6.588;2022-12-29T02:05:24;1.27;;;0.60;;
76259;SDS011;65076;52.362;6.588;2022-12-29T02:08:00;0.68;;;0.60;;
76259;SDS011;65076;52.362;6.588;2022-12-29T02:10:30;0.68;;;0.68;;
76259;SDS011;65076;52.362;6.588;2022-12-29T02:13:03;1.13;;;0.80;;
76259;SDS011;65076;52.362;6.588;2022-12-29T02:15:34;1.00;;;0.70;;
76259;SDS011;65076;52.362;6.588;2022-12-29T02:18:16;1.20;;;0.88;;
76259;SDS011;65076;52.362;6.588;2022-12-29T02:21:08;1.60;;;1.23;;
76259;SDS011;65076;52.362;6.588;2022-12-29T02:27:40;2.70;;;1.67;;
76259;SDS011;65076;52.362;6.588;2022-12-29T02:30:36;3.05;;;0.77;;
76259;SDS011;65076;52.362;6.588;2022-12-29T02:33:24;1.85;;;1.20;;
76259;SDS011;65076;52.362;6.588;2022-12-29T02:36:12;2.05;;;0.50;;
76259;SDS011;65076;52.362;6.588;2022-12-29T02:38:58;2.65;;;0.80;;
76259;SDS011;65076;52.362;6.588;2022-12-29T02:41:39;2.88;;;1.00;;
76259;SDS011;65076;52.362;6.588;2022-12-29T02:44:24;1.50;;;1.00;;
76259;SDS011;65076;52.362;6.588;2022-12-29T02:47:08;2.33;;;1.17;;
76259;SDS011;65076;52.362;6.588;2022-12-29T02:49:46;1.13;;;0.90;;
76259;SDS011;65076;52.362;6.588;2022-12-29T02:52:25;1.58;;;0.60;;
76259;SDS011;65076;52.362;6.588;2022-12-29T02:54:59;1.58;;;1.20;;
76259;SDS011;65076;52.362;6.588;2022-12-29T02:57:28;1.55;;;1.10;;
76259;SDS011;65076;52.362;6.588;2022-12-29T03:00:00;2.08;;;1.40;;
76259;SDS011;65076;52.362;6.588;2022-12-29T03:02:46;1.48;;;0.80;;
76259;SDS011;65076;52.362;6.588;2022-12-29T03:05:57;2.63;;;1.30;;
76259;SDS011;65076;52.362;6.588;2022-12-29T03:08:42;1.27;;;0.85;;
76259;SDS011;65076;52.362;6.588;2022-12-29T03:11:21;3.60;;;1.00;;
76259;SDS011;65076;52.362;6.588;2022-12-29T03:14:23;1.45;;;0.90;;
76259;SDS011;65076;52.362;6.588;2022-12-29T03:17:19;2.17;;;0.80;;
76259;SDS011;65076;52.362;6.588;2022-12-29T03:19:59;1.92;;;1.08;;
76259;SDS011;65076;52.362;6.588;2022-12-29T03:25:08;1.05;;;0.77;;
76259;SDS011;65076;52.362;6.588;2022-12-29T03:27:44;0.90;;;0.50;;
76259;SDS011;65076;52.362;6.588;2022-12-29T03:30:17;1.60;;;0.50;;
76259;SDS011;65076;52.362;6.588;2022-12-29T03:32:47;1.80;;;0.60;;
76259;SDS011;65076;52.362;6.588;2022-12-29T03:35:22;0.30;;;0.30;;
76259;SDS011;65076;52.362;6.588;2022-12-29T03:37:55;1.10;;;0.50;;
76259;SDS011;65076;52.362;6.588;2022-12-29T03:40:29;2.35;;;0.30;;
76259;SDS011;65076;52.362;6.588;2022-12-29T03:43:01;2.03;;;0.43;;
76259;SDS011;65076;52.362;6.588;2022-12-29T03:45:30;1.92;;;0.50;;
76259;SDS011;65076;52.362;6.588;2022-12-29T03:47:58;1.30;;;0.70;;
76259;SDS011;65076;52.362;6.588;2022-12-29T03:50:28;0.50;;;0.30;;
76259;SDS011;65076;52.362;6.588;2022-12-29T03:52:56;1.33;;;0.50;;
76259;SDS011;65076;52.362;6.588;2022-12-29T03:55:24;2.45;;;0.52;;
76259;SDS011;65076;52.362;6.588;2022-12-29T03:57:52;5.57;;;0.85;;
76259;SDS011;65076;52.362;6.588;2022-12-29T04:00:20;1.92;;;0.70;;
76259;SDS011;65076;52.362;6.588;2022-12-29T04:02:48;2.00;;;0.70;;
76259;SDS011;65076;52.362;6.588;2022-12-29T04:05:16;1.30;;;0.70;;
76259;SDS011;65076;52.362;6.588;2022-12-29T04:07:46;1.98;;;0.60;;
76259;SDS011;65076;52.362;6.588;2022-12-29T04:10:13;3.47;;;1.05;;
76259;SDS011;65076;52.362;6.588;2022-12-29T04:12:42;1.38;;;0.60;;
76259;SDS011;65076;52.362;6.588;2022-12-29T04:15:12;0.68;;;0.38;;
76259;SDS011;65076;52.362;6.588;2022-12-29T04:17:40;0.95;;;0.57;;
76259;SDS011;65076;52.362;6.588;2022-12-29T04:20:08;2.72;;;0.93;;
76259;SDS011;65076;52.362;6.588;2022-12-29T04:23:00;0.90;;;0.52;;
76259;SDS011;65076;52.362;6.588;2022-12-29T04:25:28;1.85;;;0.35;;
76259;SDS011;65076;52.362;6.588;2022-12-29T04:27:59;1.55;;;0.50;;
76259;SDS011;65076;52.362;6.588;2022-12-29T04:30:28;7.03;;;0.65;;
76259;SDS011;65076;52.362;6.588;2022-12-29T04:32:56;1.83;;;0.60;;
76259;SDS011;65076;52.362;6.588;2022-12-29T04:35:23;1.98;;;0.38;;
76259;SDS011;65076;52.362;6.588;2022-12-29T04:37:51;2.05;;;0.57;;
76259;SDS011;65076;52.362;6.588;2022-12-29T04:40:21;1.38;;;0.30;;
76259;SDS011;65076;52.362;6.588;2022-12-29T04:42:49;1.92;;;0.60;;
76259;SDS011;65076;52.362;6.588;2022-12-29T04:45:18;1.98;;;0.70;;
76259;SDS011;65076;52.362;6.588;2022-12-29T04:47:46;1.05;;;0.60;;
76259;SDS011;65076;52.362;6.588;2022-12-29T04:50:14;3.13;;;0.50;;
76259;SDS011;65076;52.362;6.588;2022-12-29T04:52:43;3.28;;;0.73;;
76259;SDS011;65076;52.362;6.588;2022-12-29T04:55:11;2.17;;;0.60;;
76259;SDS011;65076;52.362;6.588;2022-12-29T04:57:41;2.22;;;0.60;;
76259;SDS011;65076;52.362;6.588;2022-12-29T05:00:09;0.70;;;0.40;;
76259;SDS011;65076;52.362;6.588;2022-12-29T05:02:39;2.38;;;0.52;;
76259;SDS011;65076;52.362;6.588;2022-12-29T05:05:09;0.90;;;0.68;;
76259;SDS011;65076;52.362;6.588;2022-12-29T05:07:37;1.20;;;0.40;;
76259;SDS011;65076;52.362;6.588;2022-12-29T05:10:06;1.67;;;0.77;;
76259;SDS011;65076;52.362;6.588;2022-12-29T05:12:36;1.42;;;0.45;;
76259;SDS011;65076;52.362;6.588;2022-12-29T05:15:07;2.67;;;0.65;;
76259;SDS011;65076;52.362;6.588;2022-12-29T05:17:37;2.08;;;0.68;;
76259;SDS011;65076;52.362;6.588;2022-12-29T05:20:05;1.33;;;0.60;;
76259;SDS011;65076;52.362;6.588;2022-12-29T05:25:03;0.93;;;0.50;;
76259;SDS011;65076;52.362;6.588;2022-12-29T05:27:32;1.42;;;0.28;;
76259;SDS011;65076;52.362;6.588;2022-12-29T05:30:00;2.15;;;0.50;;
76259;SDS011;65076;52.362;6.588;2022-12-29T05:32:29;2.25;;;0.50;;
76259;SDS011;65076;52.362;6.588;2022-12-29T05:34:58;3.05;;;0.70;;
76259;SDS011;65076;52.362;6.588;2022-12-29T05:37:26;1.40;;;0.60;;
76259;SDS011;65076;52.362;6.588;2022-12-29T05:39:54;2.72;;;0.40;;
76259;SDS011;65076;52.362;6.588;2022-12-29T05:42:22;2.95;;;0.80;;
76259;SDS011;65076;52.362;6.588;2022-12-29T05:44:50;1.17;;;0.88;;
76259;SDS011;65076;52.362;6.588;2022-12-29T05:47:20;2.20;;;0.70;;
76259;SDS011;65076;52.362;6.588;2022-12-29T05:49:49;4.03;;;0.68;;
76259;SDS011;65076;52.362;6.588;2022-12-29T05:52:17;6.18;;;1.15;;
76259;SDS011;65076;52.362;6.588;2022-12-29T05:54:45;3.35;;;0.70;;
76259;SDS011;65076;52.362;6.588;2022-12-29T05:57:14;4.22;;;0.65;;
76259;SDS011;65076;52.362;6.588;2022-12-29T05:59:41;4.18;;;2.47;;
76259;SDS011;65076;52.362;6.588;2022-12-29T06:02:10;2.95;;;0.40;;
76259;SDS011;65076;52.362;6.588;2022-12-29T06:04:38;1.02;;;0.52;;
76259;SDS011;65076;52.362;6.588;2022-12-29T06:07:07;2.65;;;0.70;;
76259;SDS011;65076;52.362;6.588;2022-12-29T06:09:35;1.90;;;1.00;;
76259;SDS011;65076;52.362;6.588;2022-12-29T06:12:03;2.70;;;1.23;;
76259;SDS011;65076;52.362;6.588;2022-12-29T06:14:32;5.15;;;1.95;;
76259;SDS011;65076;52.362;6.588;2022-12-29T06:17:00;2.88;;;1.17;;
76259;SDS011;65076;52.362;6.588;2022-12-29T06:19:28;4.30;;;0.70;;
76259;SDS011;65076;52.362;6.588;2022-12-29T06:21:57;3.67;;;1.10;;
76259;SDS011;65076;52.362;6.588;2022-12-29T06:24:26;3.60;;;1.77;;
76259;SDS011;65076;52.362;6.588;2022-12-29T06:26:54;3.80;;;0.60;;
76259;SDS011;65076;52.362;6.588;2022-12-29T06:29:22;3.10;;;0.60;;
76259;SDS011;65076;52.362;6.588;2022-12-29T06:31:50;3.67;;;1.55;;
76259;SDS011;65076;52.362;6.588;2022-12-29T06:34:22;7.20;;;0.90;;
76259;SDS011;65076;52.362;6.588;2022-12-29T06:36:50;3.17;;;0.63;;
76259;SDS011;65076;52.362;6.588;2022-12-29T06:39:18;2.38;;;0.82;;
76259;SDS011;65076;52.362;6.588;2022-12-29T06:41:48;6.38;;;1.00;;
76259;SDS011;65076;52.362;6.588;2022-12-29T06:44:18;3.67;;;1.05;;
76259;SDS011;65076;52.362;6.588;2022-12-29T06:46:46;2.20;;;1.30;;
76259;SDS011;65076;52.362;6.588;2022-12-29T06:49:14;6.65;;;1.10;;
76259;SDS011;65076;52.362;6.588;2022-12-29T06:51:42;5.28;;;1.58;;
76259;SDS011;65076;52.362;6.588;2022-12-29T06:54:10;7.70;;;3.45;;
76259;SDS011;65076;52.362;6.588;2022-12-29T06:56:38;3.17;;;1.33;;
76259;SDS011;65076;52.362;6.588;2022-12-29T06:59:08;1.73;;;0.55;;
76259;SDS011;65076;52.362;6.588;2022-12-29T07:01:36;4.43;;;0.70;;
76259;SDS011;65076;52.362;6.588;2022-12-29T07:04:05;2.05;;;0.75;;
76259;SDS011;65076;52.362;6.588;2022-12-29T07:06:32;3.55;;;1.05;;
76259;SDS011;65076;52.362;6.588;2022-12-29T07:09:00;2.63;;;0.77;;
76259;SDS011;65076;52.362;6.588;2022-12-29T07:11:28;2.45;;;0.75;;
76259;SDS011;65076;52.362;6.588;2022-12-29T07:13:56;3.83;;;1.27;;
76259;SDS011;65076;52.362;6.588;2022-12-29T07:16:28;1.75;;;0.60;;
76259;SDS011;65076;52.362;6.588;2022-12-29T07:18:57;2.50;;;0.90;;
76259;SDS011;65076;52.362;6.588;2022-12-29T07:21:25;5.38;;;0.90;;
76259;SDS011;65076;52.362;6.588;2022-12-29T07:23:53;3.38;;;0.88;;
76259;SDS011;65076;52.362;6.588;2022-12-29T07:26:22;8.15;;;1.90;;
76259;SDS011;65076;52.362;6.588;2022-12-29T07:28:50;5.95;;;2.03;;
76259;SDS011;65076;52.362;6.588;2022-12-29T07:31:19;4.70;;;1.33;;
76259;SDS011;65076;52.362;6.588;2022-12-29T07:33:51;7.65;;;2.10;;
76259;SDS011;65076;52.362;6.588;2022-12-29T07:36:26;5.72;;;1.38;;
76259;SDS011;65076;52.362;6.588;2022-12-29T07:39:00;5.78;;;1.50;;
76259;SDS011;65076;52.362;6.588;2022-12-29T07:41:27;7.60;;;1.42;;
76259;SDS011;65076;52.362;6.588;2022-12-29T07:43:55;6.50;;;2.28;;
76259;SDS011;65076;52.362;6.588;2022-12-29T07:46:23;4.97;;;1.42;;
76259;SDS011;65076;52.362;6.588;2022-12-29T07:49:12;5.28;;;0.85;;
76259;SDS011;65076;52.362;6.588;2022-12-29T07:51:54;2.15;;;0.60;;
76259;SDS011;65076;52.362;6.588;2022-12-29T07:54:23;4.70;;;0.70;;
76259;SDS011;65076;52.362;6.588;2022-12-29T07:56:51;8.05;;;0.75;;
76259;SDS011;65076;52.362;6.588;2022-12-29T07:59:19;1.73;;;0.73;;
76259;SDS011;65076;52.362;6.588;2022-12-29T08:01:47;7.82;;;1.02;;
76259;SDS011;65076;52.362;6.588;2022-12-29T08:04:16;5.50;;;1.42;;
76259;SDS011;65076;52.362;6.588;2022-12-29T08:06:45;6.22;;;1.05;;
76259;SDS011;65076;52.362;6.588;2022-12-29T08:09:13;4.05;;;0.77;;
76259;SDS011;65076;52.362;6.588;2022-12-29T08:11:48;4.03;;;0.70;;
76259;SDS011;65076;52.362;6.588;2022-12-29T08:14:16;6.38;;;1.33;;
76259;SDS011;65076;52.362;6.588;2022-12-29T08:16:44;4.53;;;0.90;;
76259;SDS011;65076;52.362;6.588;2022-12-29T08:19:12;4.88;;;1.70;;
76259;SDS011;65076;52.362;6.588;2022-12-29T08:21:42;2.38;;;0.47;;
76259;SDS011;65076;52.362;6.588;2022-12-29T08:24:10;0.75;;;0.40;;
76259;SDS011;65076;52.362;6.588;2022-12-29T08:26:38;2.60;;;1.27;;
76259;SDS011;65076;52.362;6.588;2022-12-29T08:29:06;4.63;;;0.90;;
76259;SDS011;65076;52.362;6.588;2022-12-29T08:31:34;5.57;;;1.63;;
76259;SDS011;65076;52.362;6.588;2022-12-29T08:34:02;1.65;;;0.52;;
76259;SDS011;65076;52.362;6.588;2022-12-29T08:36:30;5.32;;;1.20;;
76259;SDS011;65076;52.362;6.588;2022-12-29T08:39:00;2.40;;;0.70;;
76259;SDS011;65076;52.362;6.588;2022-12-29T08:41:28;2.47;;;0.60;;
76259;SDS011;65076;52.362;6.588;2022-12-29T08:43:56;6.15;;;1.00;;
76259;SDS011;65076;52.362;6.588;2022-12-29T08:46:23;3.72;;;0.90;;
76259;SDS011;65076;52.362;6.588;2022-12-29T08:48:52;6.30;;;1.17;;
76259;SDS011;65076;52.362;6.588;2022-12-29T08:51:21;4.47;;;1.08;;
76259;SDS011;65076;52.362;6.588;2022-12-29T08:53:50;7.18;;;1.20;;
76259;SDS011;65076;52.362;6.588;2022-12-29T08:56:20;2.88;;;0.75;;
76259;SDS011;65076;52.362;6.588;2022-12-29T08:58:49;3.33;;;0.77;;
76259;SDS011;65076;52.362;6.588;2022-12-29T09:01:18;5.72;;;1.10;;
76259;SDS011;65076;52.362;6.588;2022-12-29T09:03:46;5.55;;;1.90;;
76259;SDS011;65076;52.362;6.588;2022-12-29T09:06:35;3.45;;;1.25;;
76259;SDS011;65076;52.362;6.588;2022-12-29T09:09:06;4.80;;;1.00;;
76259;SDS011;65076;52.362;6.588;2022-12-29T09:11:35;8.60;;;1.42;;
76259;SDS011;65076;52.362;6.588;2022-12-29T09:14:03;3.47;;;0.90;;
76259;SDS011;65076;52.362;6.588;2022-12-29T09:16:31;4.40;;;0.90;;
76259;SDS011;65076;52.362;6.588;2022-12-29T09:19:00;4.75;;;0.88;;
76259;SDS011;65076;52.362;6.588;2022-12-29T09:21:29;4.13;;;0.95;;
76259;SDS011;65076;52.362;6.588;2022-12-29T09:23:57;4.65;;;1.27;;
76259;SDS011;65076;52.362;6.588;2022-12-29T09:26:25;6.07;;;1.52;;
76259;SDS011;65076;52.362;6.588;2022-12-29T09:28:54;4.47;;;1.00;;
76259;SDS011;65076;52.362;6.588;2022-12-29T09:31:23;5.40;;;1.13;;
76259;SDS011;65076;52.362;6.588;2022-12-29T09:33:51;4.13;;;1.30;;
76259;SDS011;65076;52.362;6.588;2022-12-29T09:36:19;1.35;;;0.75;;
76259;SDS011;65076;52.362;6.588;2022-12-29T09:38:47;5.22;;;1.05;;
76259;SDS011;65076;52.362;6.588;2022-12-29T09:41:16;3.30;;;0.70;;
76259;SDS011;65076;52.362;6.588;2022-12-29T09:44:04;3.00;;;0.60;;
76259;SDS011;65076;52.362;6.588;2022-12-29T09:46:44;4.97;;;0.75;;
76259;SDS011;65076;52.362;6.588;2022-12-29T09:49:21;5.65;;;1.17;;
76259;SDS011;65076;52.362;6.588;2022-12-29T09:51:57;2.03;;;0.50;;
76259;SDS011;65076;52.362;6.588;2022-12-29T09:54:37;3.42;;;1.17;;
76259;SDS011;65076;52.362;6.588;2022-12-29T10:00:02;6.38;;;1.02;;
76259;SDS011;65076;52.362;6.588;2022-12-29T10:02:40;1.35;;;0.60;;
76259;SDS011;65076;52.362;6.588;2022-12-29T10:05:18;5.70;;;1.00;;
76259;SDS011;65076;52.362;6.588;2022-12-29T10:08:07;2.85;;;0.73;;
76259;SDS011;65076;52.362;6.588;2022-12-29T10:10:53;7.10;;;1.15;;
76259;SDS011;65076;52.362;6.588;2022-12-29T10:13:28;2.63;;;0.75;;
76259;SDS011;65076;52.362;6.588;2022-12-29T10:16:17;2.80;;;0.90;;
76259;SDS011;65076;52.362;6.588;2022-12-29T10:19:03;4.20;;;0.70;;
76259;SDS011;65076;52.362;6.588;2022-12-29T10:21:51;4.43;;;0.80;;
76259;SDS011;65076;52.362;6.588;2022-12-29T10:24:39;6.15;;;1.30;;
76259;SDS011;65076;52.362;6.588;2022-12-29T10:27:12;7.28;;;1.02;;
76259;SDS011;65076;52.362;6.588;2022-12-29T10:29:44;3.00;;;0.93;;
76259;SDS011;65076;52.362;6.588;2022-12-29T10:32:22;3.30;;;0.70;;
76259;SDS011;65076;52.362;6.588;2022-12-29T10:34:58;6.80;;;1.13;;
76259;SDS011;65076;52.362;6.588;2022-12-29T10:37:34;5.93;;;1.10;;
76259;SDS011;65076;52.362;6.588;2022-12-29T10:40:14;3.70;;;1.70;;
76259;SDS011;65076;52.362;6.588;2022-12-29T10:42:53;6.50;;;1.38;;
76259;SDS011;65076;52.362;6.588;2022-12-29T10:45:28;4.35;;;0.80;;
76259;SDS011;65076;52.362;6.588;2022-12-29T10:48:02;4.70;;;1.38;;
76259;SDS011;65076;52.362;6.588;2022-12-29T10:50:40;6.68;;;2.95;;
76259;SDS011;65076;52.362;6.588;2022-12-29T10:53:09;6.05;;;2.03;;
76259;SDS011;65076;52.362;6.588;2022-12-29T10:55:46;8.30;;;2.20;;
76259;SDS011;65076;52.362;6.588;2022-12-29T10:58:16;7.22;;;3.15;;
76259;SDS011;65076;52.362;6.588;2022-12-29T11:00:48;3.88;;;1.17;;
76259;SDS011;65076;52.362;6.588;2022-12-29T11:03:35;7.82;;;3.13;;
76259;SDS011;65076;52.362;6.588;2022-12-29T11:06:17;3.35;;;0.85;;
76259;SDS011;65076;52.362;6.588;2022-12-29T11:08:54;4.18;;;1.23;;
76259;SDS011;65076;52.362;6.588;2022-12-29T11:11:26;3.33;;;0.80;;
76259;SDS011;65076;52.362;6.588;2022-12-29T11:14:02;2.03;;;0.77;;
76259;SDS011;65076;52.362;6.588;2022-12-29T11:16:40;6.90;;;1.02;;
76259;SDS011;65076;52.362;6.588;2022-12-29T11:19:21;2.67;;;1.08;;
76259;SDS011;65076;52.362;6.588;2022-12-29T11:21:52;3.60;;;0.80;;
76259;SDS011;65076;52.362;6.588;2022-12-29T11:24:21;5.82;;;1.00;;
76259;SDS011;65076;52.362;6.588;2022-12-29T11:26:52;1.95;;;0.82;;
76259;SDS011;65076;52.362;6.588;2022-12-29T11:29:24;5.95;;;0.90;;
76259;SDS011;65076;52.362;6.588;2022-12-29T11:31:55;3.42;;;1.48;;
76259;SDS011;65076;52.362;6.588;2022-12-29T11:34:31;4.53;;;2.33;;
76259;SDS011;65076;52.362;6.588;2022-12-29T11:37:03;4.85;;;1.73;;
76259;SDS011;65076;52.362;6.588;2022-12-29T11:39:38;4.78;;;1.30;;
76259;SDS011;65076;52.362;6.588;2022-12-29T11:42:14;2.38;;;0.75;;
76259;SDS011;65076;52.362;6.588;2022-12-29T11:44:46;1.35;;;0.60;;
76259;SDS011;65076;52.362;6.588;2022-12-29T11:47:21;6.78;;;1.13;;
76259;SDS011;65076;52.362;6.588;2022-12-29T11:49:58;3.88;;;0.90;;
76259;SDS011;65076;52.362;6.588;2022-12-29T11:52:31;3.88;;;1.48;;
76259;SDS011;65076;52.362;6.588;2022-12-29T11:55:06;2.90;;;1.20;;
76259;SDS011;65076;52.362;6.588;2022-12-29T11:57:48;3.35;;;0.93;;
76259;SDS011;65076;52.362;6.588;2022-12-29T12:00:19;3.05;;;1.45;;
76259;SDS011;65076;52.362;6.588;2022-12-29T12:02:53;3.95;;;1.00;;
76259;SDS011;65076;52.362;6.588;2022-12-29T12:05:30;5.32;;;0.82;;
76259;SDS011;65076;52.362;6.588;2022-12-29T12:08:10;4.88;;;0.77;;
76259;SDS011;65076;52.362;6.588;2022-12-29T12:10:48;2.45;;;0.80;;
76259;SDS011;65076;52.362;6.588;2022-12-29T12:13:25;4.53;;;1.30;;
76259;SDS011;65076;52.362;6.588;2022-12-29T12:16:04;6.63;;;1.77;;
76259;SDS011;65076;52.362;6.588;2022-12-29T12:18:39;4.43;;;1.17;;
76259;SDS011;65076;52.362;6.588;2022-12-29T12:21:20;7.20;;;2.42;;
76259;SDS011;65076;52.362;6.588;2022-12-29T12:24:02;3.28;;;1.63;;
76259;SDS011;65076;52.362;6.588;2022-12-29T12:27:08;5.95;;;3.10;;
76259;SDS011;65076;52.362;6.588;2022-12-29T12:29:43;3.75;;;1.20;;
76259;SDS011;65076;52.362;6.588;2022-12-29T12:32:23;5.53;;;1.63;;
76259;SDS011;65076;52.362;6.588;2022-12-29T12:35:04;10.55;;;2.35;;
76259;SDS011;65076;52.362;6.588;2022-12-29T12:37:44;5.50;;;1.83;;
76259;SDS011;65076;52.362;6.588;2022-12-29T12:43:43;7.22;;;1.10;;
76259;SDS011;65076;52.362;6.588;2022-12-29T12:46:27;5.20;;;1.60;;
76259;SDS011;65076;52.362;6.588;2022-12-29T12:49:30;4.28;;;1.90;;
76259;SDS011;65076;52.362;6.588;2022-12-29T12:52:26;7.35;;;2.15;;
76259;SDS011;65076;52.362;6.588;2022-12-29T12:55:27;2.42;;;0.75;;
76259;SDS011;65076;52.362;6.588;2022-12-29T12:58:23;4.60;;;1.83;;
76259;SDS011;65076;52.362;6.588;2022-12-29T13:01:11;6.40;;;1.30;;
76259;SDS011;65076;52.362;6.588;2022-12-29T13:04:00;6.95;;;1.52;;
76259;SDS011;65076;52.362;6.588;2022-12-29T13:07:04;4.05;;;1.13;;
76259;SDS011;65076;52.362;6.588;2022-12-29T13:09:54;2.95;;;1.00;;
76259;SDS011;65076;52.362;6.588;2022-12-29T13:12:41;3.85;;;1.58;;
76259;SDS011;65076;52.362;6.588;2022-12-29T13:15:26;4.20;;;1.30;;
76259;SDS011;65076;52.362;6.588;2022-12-29T13:18:14;2.83;;;0.90;;
76259;SDS011;65076;52.362;6.588;2022-12-29T13:20:55;6.15;;;1.70;;
76259;SDS011;65076;52.362;6.588;2022-12-29T13:23:38;8.85;;;3.33;;
76259;SDS011;65076;52.362;6.588;2022-12-29T13:26:17;4.93;;;1.50;;
76259;SDS011;65076;52.362;6.588;2022-12-29T13:28:57;3.20;;;1.10;;
76259;SDS011;65076;52.362;6.588;2022-12-29T13:31:56;7.10;;;3.50;;
76259;SDS011;65076;52.362;6.588;2022-12-29T13:34:52;8.98;;;1.90;;
76259;SDS011;65076;52.362;6.588;2022-12-29T13:37:34;8.18;;;4.07;;
76259;SDS011;65076;52.362;6.588;2022-12-29T13:40:15;6.85;;;2.50;;
76259;SDS011;65076;52.362;6.588;2022-12-29T13:42:48;16.45;;;5.88;;
76259;SDS011;65076;52.362;6.588;2022-12-29T13:45:20;3.15;;;1.60;;
76259;SDS011;65076;52.362;6.588;2022-12-29T13:47:52;5.72;;;2.10;;
76259;SDS011;65076;52.362;6.588;2022-12-29T13:50:31;10.80;;;3.67;;
76259;SDS011;65076;52.362;6.588;2022-12-29T13:53:06;8.02;;;5.60;;
76259;SDS011;65076;52.362;6.588;2022-12-29T13:55:48;10.77;;;5.55;;
76259;SDS011;65076;52.362;6.588;2022-12-29T13:58:31;15.68;;;6.60;;
76259;SDS011;65076;52.362;6.588;2022-12-29T14:01:12;25.58;;;11.38;;
76259;SDS011;65076;52.362;6.588;2022-12-29T14:03:47;11.82;;;5.50;;
76259;SDS011;65076;52.362;6.588;2022-12-29T14:06:24;9.63;;;4.63;;
76259;SDS011;65076;52.362;6.588;2022-12-29T14:08:54;6.38;;;2.90;;
76259;SDS011;65076;52.362;6.588;2022-12-29T14:11:31;5.07;;;2.92;;
76259;SDS011;65076;52.362;6.588;2022-12-29T14:14:10;9.30;;;3.58;;
76259;SDS011;65076;52.362;6.588;2022-12-29T14:16:48;9.30;;;3.72;;
76259;SDS011;65076;52.362;6.588;2022-12-29T14:19:18;4.60;;;2.35;;
76259;SDS011;65076;52.362;6.588;2022-12-29T14:24:58;10.80;;;3.50;;
76259;SDS011;65076;52.362;6.588;2022-12-29T14:27:43;7.55;;;3.95;;
76259;SDS011;65076;52.362;6.588;2022-12-29T14:33:28;5.80;;;3.40;;
76259;SDS011;65076;52.362;6.588;2022-12-29T14:38:49;7.03;;;2.45;;
76259;SDS011;65076;52.362;6.588;2022-12-29T14:41:18;10.30;;;2.95;;
76259;SDS011;65076;52.362;6.588;2022-12-29T14:44:01;5.75;;;2.88;;
76259;SDS011;65076;52.362;6.588;2022-12-29T14:46:45;5.78;;;3.13;;
76259;SDS011;65076;52.362;6.588;2022-12-29T14:49:23;7.97;;;3.47;;
76259;SDS011;65076;52.362;6.588;2022-12-29T14:52:04;6.13;;;2.30;;
76259;SDS011;65076;52.362;6.588;2022-12-29T14:54:41;4.15;;;1.48;;
76259;SDS011;65076;52.362;6.588;2022-12-29T15:00:08;7.03;;;2.08;;
76259;SDS011;65076;52.362;6.588;2022-12-29T15:02:46;7.30;;;2.65;;
76259;SDS011;65076;52.362;6.588;2022-12-29T15:05:31;10.15;;;2.58;;
76259;SDS011;65076;52.362;6.588;2022-12-29T15:08:07;5.32;;;2.08;;
76259;SDS011;65076;52.362;6.588;2022-12-29T15:10:42;11.32;;;2.85;;
76259;SDS011;65076;52.362;6.588;2022-12-29T15:13:16;9.40;;;2.30;;
76259;SDS011;65076;52.362;6.588;2022-12-29T15:15:49;6.00;;;2.15;;
76259;SDS011;65076;52.362;6.588;2022-12-29T15:18:22;10.00;;;3.67;;
76259;SDS011;65076;52.362;6.588;2022-12-29T15:20:56;7.70;;;2.65;;
76259;SDS011;65076;52.362;6.588;2022-12-29T15:23:28;11.02;;;5.13;;
76259;SDS011;65076;52.362;6.588;2022-12-29T15:26:02;5.85;;;2.95;;
76259;SDS011;65076;52.362;6.588;2022-12-29T15:28:37;6.93;;;2.28;;
76259;SDS011;65076;52.362;6.588;2022-12-29T15:31:10;4.10;;;1.45;;
76259;SDS011;65076;52.362;6.588;2022-12-29T15:33:43;8.18;;;2.30;;
76259;SDS011;65076;52.362;6.588;2022-12-29T15:36:18;7.90;;;3.25;;
76259;SDS011;65076;52.362;6.588;2022-12-29T15:38:48;5.05;;;2.38;;
76259;SDS011;65076;52.362;6.588;2022-12-29T15:41:23;5.47;;;2.58;;
76259;SDS011;65076;52.362;6.588;2022-12-29T15:44:23;2.40;;;1.00;;
76259;SDS011;65076;52.362;6.588;2022-12-29T15:46:57;7.35;;;2.85;;
76259;SDS011;65076;52.362;6.588;2022-12-29T15:49:29;8.98;;;3.97;;
76259;SDS011;65076;52.362;6.588;2022-12-29T15:51:59;3.80;;;1.52;;
76259;SDS011;65076;52.362;6.588;2022-12-29T15:54:31;5.93;;;2.83;;
76259;SDS011;65076;52.362;6.588;2022-12-29T15:56:59;7.45;;;3.40;;
76259;SDS011;65076;52.362;6.588;2022-12-29T15:59:28;3.28;;;1.67;;